createdAt,value
2018-03-26T00:00:03.355Z,5.375
2018-03-26T00:01:03.721Z,5.437
2018-03-26T00:02:03.770Z,5.375
2018-03-26T00:03:03.329Z,5.375
2018-03-26T00:04:03.779Z,5.375
2018-03-26T00:05:03.688Z,5.312
2018-03-26T00:06:03.408Z,5.312
2018-03-26T00:07:03.846Z,5.312
2018-03-26T00:08:03.456Z,5.312
2018-03-26T00:09:04.116Z,5.25
2018-03-26T00:10:03.602Z,5.25
2018-03-26T00:11:03.069Z,5.25
2018-03-26T00:12:03.712Z,5.25
2018-03-26T00:13:03.321Z,5.25
2018-03-26T00:14:03.831Z,5.25
2018-03-26T00:15:03.395Z,5.25
2018-03-26T00:16:03.457Z,5.25
2018-03-26T00:17:04.008Z,5.25
2018-03-26T00:18:03.549Z,5.25
2018-03-26T00:19:03.122Z,5.25
2018-03-26T00:20:04.091Z,5.25
2018-03-26T00:21:03.188Z,5.25
2018-03-26T00:22:03.902Z,5.25
2018-03-26T00:23:04.059Z,5.25
2018-03-26T00:24:03.461Z,5.25
2018-03-26T00:25:03.154Z,5.25
2018-03-26T00:26:03.703Z,5.25
2018-03-26T00:27:03.337Z,5.25
2018-03-26T00:28:04.040Z,5.312
2018-03-26T00:29:03.602Z,5.312
2018-03-26T00:30:03.301Z,5.312
2018-03-26T00:31:03.998Z,5.312
2018-03-26T00:32:03.435Z,5.312
2018-03-26T00:33:03.928Z,5.375
2018-03-26T00:34:03.530Z,5.312
2018-03-26T00:35:03.237Z,5.312
2018-03-26T00:36:03.729Z,5.25
2018-03-26T00:37:03.296Z,5.187
2018-03-26T00:38:03.875Z,5.187
2018-03-26T00:39:03.594Z,5.125
2018-03-26T00:40:03.520Z,5.187
2018-03-26T00:41:03.865Z,5.187
2018-03-26T00:42:03.520Z,5.187
2018-03-26T00:43:03.107Z,5.187
2018-03-26T00:44:04.567Z,5.187
2018-03-26T00:45:03.959Z,5.125
2018-03-26T00:46:03.317Z,5.187
2018-03-26T00:47:03.804Z,5.125
2018-03-26T00:48:03.361Z,5.125
2018-03-26T00:49:03.719Z,5.062
2018-03-26T00:50:03.686Z,5.062
2018-03-26T00:51:03.171Z,5.062
2018-03-26T00:52:09.146Z,5.062
2018-03-26T00:53:04.059Z,5.125
2018-03-26T00:54:03.548Z,5.187
2018-03-26T00:55:03.072Z,5.187
2018-03-26T00:56:03.568Z,5.125
2018-03-26T00:57:03.185Z,5.125
2018-03-26T00:58:03.700Z,5.125
2018-03-26T00:59:03.375Z,5.062
2018-03-26T01:00:03.941Z,5.062
2018-03-26T01:01:03.404Z,5.062
2018-03-26T01:02:03.917Z,5.062
2018-03-26T01:03:03.439Z,5
2018-03-26T01:04:03.950Z,5.062
2018-03-26T01:05:03.625Z,5
2018-03-26T01:06:04.000Z,5.062
2018-03-26T01:07:03.535Z,5.062
2018-03-26T01:08:03.414Z,5.062
2018-03-26T01:09:04.079Z,5.062
2018-03-26T01:10:04.000Z,5.062
2018-03-26T01:11:03.379Z,5.125
2018-03-26T01:12:03.948Z,5.062
2018-03-26T01:13:03.522Z,5
2018-03-26T01:14:03.121Z,5
2018-03-26T01:15:03.748Z,5
2018-03-26T01:16:03.185Z,5
2018-03-26T01:17:03.839Z,5
2018-03-26T01:18:03.211Z,5
2018-03-26T01:19:03.779Z,5
2018-03-26T01:20:03.467Z,4.937
2018-03-26T01:21:03.359Z,4.875
2018-03-26T01:22:03.843Z,4.875
2018-03-26T01:23:03.432Z,4.812
2018-03-26T01:24:04.014Z,4.75
2018-03-26T01:25:03.516Z,4.75
2018-03-26T01:26:03.913Z,4.75
2018-03-26T01:27:03.289Z,4.687
2018-03-26T01:28:04.737Z,4.625
2018-03-26T01:29:03.325Z,4.625
2018-03-26T01:30:04.085Z,4.562
2018-03-26T01:31:03.738Z,4.625
2018-03-26T01:32:08.192Z,4.562
2018-03-26T01:33:03.656Z,4.625
2018-03-26T01:34:03.174Z,4.687
2018-03-26T01:35:03.712Z,4.687
2018-03-26T01:36:03.452Z,4.687
2018-03-26T01:37:03.913Z,4.687
2018-03-26T01:38:03.489Z,4.687
2018-03-26T01:39:04.081Z,4.687
2018-03-26T01:40:04.456Z,4.687
2018-03-26T01:41:03.880Z,4.687
2018-03-26T01:42:03.405Z,4.75
2018-03-26T01:43:03.878Z,4.812
2018-03-26T01:44:03.582Z,4.812
2018-03-26T01:45:03.966Z,4.812
2018-03-26T01:46:03.440Z,4.75
2018-03-26T01:47:03.982Z,4.75
2018-03-26T01:48:03.487Z,4.687
2018-03-26T01:49:03.291Z,4.625
2018-03-26T01:50:03.868Z,4.625
2018-03-26T01:51:03.358Z,4.625
2018-03-26T01:52:04.486Z,4.687
2018-03-26T01:53:03.964Z,4.75
2018-03-26T01:54:03.534Z,4.75
2018-03-26T01:55:03.198Z,4.75
2018-03-26T01:56:03.783Z,4.75
2018-03-26T01:57:03.480Z,4.75
2018-03-26T01:58:03.183Z,4.75
2018-03-26T01:59:04.727Z,4.75
2018-03-26T02:00:03.327Z,4.75
2018-03-26T02:01:04.360Z,4.687
2018-03-26T02:02:03.200Z,4.687
2018-03-26T02:03:03.954Z,4.625
2018-03-26T02:04:03.609Z,4.625
2018-03-26T02:05:03.342Z,4.687
2018-03-26T02:06:03.870Z,4.687
2018-03-26T02:07:03.478Z,4.687
2018-03-26T02:08:03.168Z,4.687
2018-03-26T02:09:03.999Z,4.687
2018-03-26T02:10:03.553Z,4.625
2018-03-26T02:11:08.101Z,4.625
2018-03-26T02:12:03.582Z,4.625
2018-03-26T02:13:03.185Z,4.687
2018-03-26T02:14:03.898Z,4.687
2018-03-26T02:15:03.545Z,4.75
2018-03-26T02:16:03.477Z,4.75
2018-03-26T02:17:04.137Z,4.75
2018-03-26T02:18:03.627Z,4.687
2018-03-26T02:19:03.336Z,4.687
2018-03-26T02:20:04.592Z,4.687
2018-03-26T02:21:03.131Z,4.687
2018-03-26T02:22:03.712Z,4.625
2018-03-26T02:23:03.557Z,4.625
2018-03-26T02:24:03.111Z,4.625
2018-03-26T02:25:03.598Z,4.625
2018-03-26T02:26:03.349Z,4.625
2018-03-26T02:27:03.901Z,4.625
2018-03-26T02:28:03.507Z,4.625
2018-03-26T02:29:03.317Z,4.625
2018-03-26T02:30:04.318Z,4.625
2018-03-26T02:31:03.794Z,4.625
2018-03-26T02:32:03.478Z,4.687
2018-03-26T02:33:03.215Z,4.687
2018-03-26T02:34:03.966Z,4.625
2018-03-26T02:35:03.454Z,4.625
2018-03-26T02:36:04.085Z,4.625
2018-03-26T02:37:03.721Z,4.625
2018-03-26T02:38:03.310Z,4.625
2018-03-26T02:39:03.944Z,4.625
2018-03-26T02:40:03.656Z,4.625
2018-03-26T02:41:03.412Z,4.562
2018-03-26T02:42:03.429Z,4.5
2018-03-26T02:43:03.852Z,4.5
2018-03-26T02:44:03.812Z,4.5
2018-03-26T02:45:03.643Z,4.5
2018-03-26T02:46:03.151Z,4.5
2018-03-26T02:47:03.747Z,4.5
2018-03-26T02:48:08.330Z,4.5
2018-03-26T02:49:03.718Z,4.5
2018-03-26T02:50:03.435Z,4.5
2018-03-26T02:51:03.980Z,4.5
2018-03-26T02:52:03.559Z,4.5
2018-03-26T02:53:03.084Z,4.5
2018-03-26T02:54:03.759Z,4.437
2018-03-26T02:55:03.654Z,4.437
2018-03-26T02:56:03.166Z,4.437
2018-03-26T02:57:03.706Z,4.5
2018-03-26T02:58:03.452Z,4.437
2018-03-26T02:59:03.144Z,4.437
2018-03-26T03:00:04.136Z,4.437
2018-03-26T03:01:03.737Z,4.437
2018-03-26T03:02:03.205Z,4.437
2018-03-26T03:03:03.873Z,4.5
2018-03-26T03:04:03.378Z,4.437
2018-03-26T03:05:04.050Z,4.437
2018-03-26T03:06:03.644Z,4.437
2018-03-26T03:07:03.280Z,4.375
2018-03-26T03:08:03.883Z,4.437
2018-03-26T03:09:03.812Z,4.437
2018-03-26T03:10:08.468Z,4.375
2018-03-26T03:11:03.975Z,4.312
2018-03-26T03:12:03.581Z,4.312
2018-03-26T03:13:03.212Z,4.312
2018-03-26T03:14:03.797Z,4.312
2018-03-26T03:15:04.057Z,4.375
2018-03-26T03:16:03.554Z,4.312
2018-03-26T03:17:03.284Z,4.312
2018-03-26T03:18:03.830Z,4.25
2018-03-26T03:19:03.338Z,4.25
2018-03-26T03:20:03.953Z,4.25
2018-03-26T03:21:03.322Z,4.25
2018-03-26T03:22:03.893Z,4.25
2018-03-26T03:23:03.455Z,4.187
2018-03-26T03:24:03.458Z,4.187
2018-03-26T03:25:03.938Z,4.187
2018-03-26T03:26:03.558Z,4.187
2018-03-26T03:27:03.214Z,4.187
2018-03-26T03:28:03.655Z,4.187
2018-03-26T03:29:03.215Z,4.187
2018-03-26T03:30:04.172Z,4.187
2018-03-26T03:31:03.636Z,4.187
2018-03-26T03:32:03.201Z,4.125
2018-03-26T03:33:03.745Z,4.125
2018-03-26T03:34:03.457Z,4.125
2018-03-26T03:35:03.166Z,4.062
2018-03-26T03:36:03.729Z,4.062
2018-03-26T03:37:03.355Z,4
2018-03-26T03:38:03.988Z,4.062
2018-03-26T03:39:03.605Z,4
2018-03-26T03:40:03.544Z,4
2018-03-26T03:41:04.057Z,4.062
2018-03-26T03:42:03.968Z,4.062
2018-03-26T03:43:03.532Z,4.062
2018-03-26T03:44:03.158Z,4.125
2018-03-26T03:45:03.817Z,4.125
2018-03-26T03:46:03.310Z,4.062
2018-03-26T03:47:03.937Z,4.062
2018-03-26T03:48:03.597Z,4.062
2018-03-26T03:49:03.174Z,4.062
2018-03-26T03:50:04.131Z,4
2018-03-26T03:51:04.850Z,4
2018-03-26T03:52:03.315Z,4
2018-03-26T03:53:03.858Z,4
2018-03-26T03:54:03.504Z,4
2018-03-26T03:55:04.040Z,4
2018-03-26T03:56:03.681Z,4.062
2018-03-26T03:57:03.526Z,4.125
2018-03-26T03:58:04.184Z,4.187
2018-03-26T03:59:03.728Z,4.125
2018-03-26T04:00:03.544Z,4.125
2018-03-26T04:01:03.104Z,4.062
2018-03-26T04:02:03.975Z,4
2018-03-26T04:03:03.553Z,4
2018-03-26T04:04:03.366Z,4
2018-03-26T04:05:03.861Z,3.937
2018-03-26T04:06:03.540Z,3.937
2018-03-26T04:07:03.314Z,3.937
2018-03-26T04:08:03.788Z,3.937
2018-03-26T04:09:03.389Z,3.937
2018-03-26T04:10:03.480Z,3.937
2018-03-26T04:11:03.941Z,3.937
2018-03-26T04:12:03.575Z,4
2018-03-26T04:13:03.800Z,4.125
2018-03-26T04:14:03.277Z,4.187
2018-03-26T04:15:03.441Z,4.125
2018-03-26T04:16:03.975Z,4.125
2018-03-26T04:17:03.622Z,4.062
2018-03-26T04:18:04.194Z,4.125
2018-03-26T04:19:03.719Z,4.187
2018-03-26T04:20:03.421Z,4.187
2018-03-26T04:21:03.281Z,4.187
2018-03-26T04:22:03.407Z,4.187
2018-03-26T04:23:03.201Z,4.125
2018-03-26T04:24:03.814Z,4.125
2018-03-26T04:25:03.994Z,4.125
